• Join FlightAware (Why Join?)
  • Login
  • US Flag 
06:58PM EDT


 

Airport Tracker/Info


-or-


 

Live Flight TrackerFlight Track Log ✈ CPZ5702 ✈ 30-Jun-2013 ✈ KBUF - KMSP

Flight Track Log - Related Links

Times and Time Zones

All times are in EDT time to prevent confusion due to time zone crossing. See the CPZ5702 flight status page for this flight to view local times or setup timezone preferences in your user account.

Time Position Orientation Groundspeed Altitude Reporting Facility
EDT Latitude Longitude Course Direction KTS MPH feet Rate Location/Type
03:16PM 42.9500 -78.7000 274° West 155 178 1,700  Level Buffalo TRACON
03:17PM 43.0000 -78.7000 360° North 221 254 3,500 2,220 Climbing Buffalo TRACON
03:18PM 43.0167 -78.8000 283° West 284 327 6,400 3,180 Climbing Buffalo TRACON
03:19PM 42.9667 -79.3243 270° West  Level FlightAware Approximate
03:19PM 43.0167 -78.9000 270° West 260 299 9,900  Level Buffalo TRACON
03:20PM 42.9667 -79.4773 270° West  Level FlightAware Approximate
03:20PM 43.0333 -79.0000 283° West 330 380 11,400  Level Buffalo TRACON
03:21PM 42.9730 -79.6299 274° West  Level FlightAware Approximate
03:21PM 43.0333 -79.1333 270° West 357 411 13,900  Level Buffalo TRACON
03:22PM 42.9802 -79.7825 274° West  Level FlightAware Approximate
03:22PM 43.0333 -79.2667 270° West 353 406 16,300  Level Buffalo TRACON
03:23PM 43.0500 -79.4000 280° West 366 421 18,800 2,220 Climbing Buffalo TRACON
03:25PM 43.0500 -79.5667 270° West 375 432 21,000 1,860 Climbing Buffalo TRACON
03:25PM 43.0333 -79.6333 251° West 380 437 22,200 1,680 Climbing Toronto Center
03:26PM 43.0333 -79.8000 270° West 390 449 23,900 1,680 Climbing Toronto Center
03:27PM 43.0333 -79.9500 270° West 400 460 25,600 2,160 Climbing Toronto Center
03:28PM 43.0333 -80.0833 270° West 400 460 28,300 2,100 Climbing Toronto Center
03:29PM 43.0333 -80.2333 270° West 370 426 29,800 1,380 Climbing Toronto Center
03:31PM 43.0481 -80.4227 264° West  Level FlightAware Approximate
03:31PM 43.0667 -80.5167 264° West 390 449 32,500  Level Toronto Center
03:32PM 43.1000 -80.6667 287° West 380 437 34,000 900 Climbing Toronto Center
03:33PM 43.1333 -80.8000 289° West 380 437 34,300 600 Climbing Toronto Center
03:34PM 43.1500 -80.9333 280° West 390 449 35,300 840 Climbing Toronto Center
03:35PM 43.1833 -81.0667 289° West 390 449 36,000 300 Climbing Toronto Center
03:36PM 43.2167 -81.2333 285° West 390 449 36,000  Level Toronto Center
03:37PM 43.2500 -81.3667 289° West 410 472 36,000  Level Toronto Center
03:38PM 43.2833 -81.5333 285° West 410 472 36,000  Level Toronto Center
03:39PM 43.3167 -81.7000 285° West 420 483 36,000  Level Toronto Center
03:40PM 43.3667 -81.8333 297° West 430 495 36,000  Level Toronto Center
03:41PM 43.3833 -82.0000 278° West 430 495 36,000  Level Toronto Center
03:43PM 43.4486 -82.2444 290° West 436 502 36,000  Level Cleveland Center
03:44PM 43.4817 -82.3969 287° West 429 494 36,000  Level Cleveland Center
03:45PM 43.5144 -82.5556 286° West 424 488 36,000  Level Cleveland Center
03:46PM 43.5492 -82.7111 287° West 424 488 36,000  Level Cleveland Center
03:47PM 43.5817 -82.8700 286° West 424 488 36,000  Level Cleveland Center
03:48PM 43.6333 -83.1167 286° West 430 495 36,000  Level Toronto Center
03:50PM 43.6797 -83.3489 286° West 438 504 36,000  Level Minneapolis Center
03:51PM 43.7125 -83.5117 286° West 441 507 36,000  Level Minneapolis Center
03:52PM 43.7453 -83.6764 285° West 445 512 36,000  Level Minneapolis Center
03:53PM 43.7717 -83.8069 286° West 443 510 36,000  Level Minneapolis Center
03:54PM 43.8111 -84.0044 286° West 444 511 36,000  Level Minneapolis Center
03:55PM 43.8511 -84.2014 286° West 445 512 36,000  Level Minneapolis Center
03:56PM 43.8833 -84.3658 285° West 445 512 36,000  Level Minneapolis Center
03:57PM 43.9147 -84.5289 285° West 442 509 36,000  Level Minneapolis Center
03:59PM 43.9555 -84.7626 284° West  Level FlightAware Approximate
03:59PM 43.9778 -84.8600 284° West 446 513 36,000  Level Minneapolis Center
04:00PM 44.0086 -85.0233 285° West 442 509 36,000  Level Minneapolis Center
04:01PM 44.0450 -85.2158 285° West 442 509 36,000  Level Minneapolis Center
04:02PM 44.0764 -85.3814 285° West 443 510 36,000  Level Minneapolis Center
04:03PM 44.1064 -85.5481 284° West 443 510 36,000  Level Minneapolis Center
04:05PM 44.1429 -85.7529 284° West  Level FlightAware Approximate
04:05PM 44.1667 -85.8814 284° West 444 511 36,000  Level Minneapolis Center
04:06PM 44.2022 -86.0828 284° West 444 511 36,000  Level Minneapolis Center
04:07PM 44.2325 -86.2506 284° West 444 511 36,000  Level Minneapolis Center
04:08PM 44.2617 -86.4183 284° West 445 512 36,000  Level Minneapolis Center
04:09PM 44.2906 -86.5856 284° West 443 510 36,000  Level Minneapolis Center
04:10PM 44.3192 -86.7508 284° West 438 504 36,000  Level Minneapolis Center
04:11PM 44.3481 -86.9169 284° West 440 506 36,000  Level Minneapolis Center
04:13PM 44.3728 -87.0825 282° West  Level FlightAware Approximate
04:14PM 44.4122 -87.3031 282° West 441 507 36,000  Level Minneapolis Center
04:15PM 44.4394 -87.4692 283° West 439 505 36,000  Level Minneapolis Center
04:16PM 44.4742 -87.6833 283° West 442 509 36,000  Level Minneapolis Center
04:17PM 44.5006 -87.8494 283° West 440 506 36,000  Level Minneapolis Center
04:18PM 44.5281 -88.0236 283° West 437 503 36,000  Level Minneapolis Center
04:19PM 44.5547 -88.1914 283° West 442 509 36,000  Level Minneapolis Center
04:20PM 44.5819 -88.4214 280° West 448 516 36,000  Level Minneapolis Center
04:21PM 44.6022 -88.5933 279° West 449 517 36,000  Level Minneapolis Center
04:22PM 44.6211 -88.7617 279° West 441 507 36,000  Level Minneapolis Center
04:23PM 44.6394 -88.9275 279° West 434 499 36,000  Level Minneapolis Center
04:24PM 44.6619 -89.1233 279° West 436 502 36,000  Level Minneapolis Center
04:25PM 44.6797 -89.2911 279° West 435 501 36,000  Level Minneapolis Center
04:26PM 44.6981 -89.4569 279° West 434 499 36,000 -480 Level Minneapolis Center
04:28PM 44.7161 -89.6214 279° West 429 494 35,100 -1,020 Descending Minneapolis Center
04:29PM 44.7331 -89.7861 278° West 427 491 34,000 -1,260 Descending Minneapolis Center
04:30PM 44.7528 -89.9844 278° West 437 503 32,600 -1,020 Descending Minneapolis Center
04:31PM 44.7703 -90.1517 278° West 434 499 32,000 -300 Descending Minneapolis Center
04:32PM 44.7875 -90.3200 278° West 436 502 32,000  Level Minneapolis Center
04:33PM 44.8053 -90.4908 278° West 440 506 32,000  Level Minneapolis Center
04:34PM 44.8211 -90.6744 277° West 438 504 32,000 -300 Level Minneapolis Center
04:35PM 44.8383 -90.8450 278° West 440 506 31,500 -1,440 Descending Minneapolis Center
04:36PM 44.8544 -91.0144 278° West 441 507 29,100 -2,460 Descending Minneapolis Center
04:37PM 44.8694 -91.1819 277° West 437 503 26,500 -2,700 Descending Minneapolis Center
04:38PM 44.8886 -91.3744 278° West 421 484 23,600 -2,520 Descending Minneapolis Center
04:39PM 44.9033 -91.5214 278° West 393 452 21,400 -2,220 Descending Minneapolis Center
04:40PM 44.9317 -91.6603 286° West 374 430 19,100 -2,100 Descending Minneapolis Center
04:41PM 44.9578 -91.7958 285° West 364 419 17,100 -1,920 Descending Minneapolis Center
04:42PM 44.9833 -91.9286 285° West 352 405 15,100 -2,100 Descending Minneapolis Center
04:43PM 45.0119 -92.0847 285° West 345 397 12,800 -2,040 Descending Minneapolis Center
04:44PM 45.0350 -92.2086 285° West 330 380 11,000 -960 Descending Minneapolis Center
04:45PM 45.0433 -92.3308 276° West 320 368 10,900 -600 Descending Minneapolis Center
04:46PM 45.0003 -92.4336 239° Southwest 308 354 9,800 -1,020 Descending Minneapolis Center
04:47PM 44.9556 -92.5331 238° Southwest 302 348 8,800 -1,080 Descending Minneapolis Center
04:48PM 44.9106 -92.6303 237° Southwest 297 342 7,600 -960 Descending Minneapolis Center
04:49PM 44.8567 -92.7472 237° Southwest 296 341 6,900 -960 Descending Minneapolis Center
04:50PM 44.8133 -92.8419 237° Southwest 290 334 5,700 -1,440 Descending Minneapolis Center
04:51PM 44.8114 -92.9492 269° West 272 313 4,000 -1,680 Descending Minneapolis Center